Etusivu
METAR-TAF:

METAR-TAF

Lentoasemat :

Marrakech, Marokko

Leveyspiiri: 31-37N, Pituuspiiri: 008-02W, korkeus merenpinnasta: 468 m

Tämänhetkinen sää

Tämä raportti tehtiin 9 minuuttia sitten, kello 18.00 UTC
Tuuli 10 kn lännestä
Lämpötila 33°C
Kosteus 24%
Ilmanpaine 1014 hPa
Näkyvyys: 8000 m

METAR: GMMX 281800Z 26010KT 8000 NSC 33/10 Q1014 NOSIG

Aika: 19:09 (18:09 UTC)

Sääennuste

Tämä raportti tehtiin 1 tunti ja 9 minuuttia sitten, kello 17.00 UTC
Ennuste voimassa 28. päivästä klo 18 UTC - 29. päivään klo 24 UTC
Tuuli 6 kn lännestä
Näkyvyys: 8000 m
Ajoittain
28. päivästä klo 18 UTC - 28. päivään klo 23 UTC
Tuuli 18 kn pohjoisen/luoteesta
Hajanaisia pilviä 2600 ft:n korkeudessa
Muutamia pilviä 3300 ft:n korkeudessa, Cumulonimbus.

TAF: GMMX 281700Z 2818/2924 26006KT 8000 NSC TEMPO 2818/2823 34018KT SCT026 FEW033CB

Säähavainnot ja -ennusteet yli 4000 lentoasemalta (METAR- ja TAF-raportit).

Käytössä olevat sääasemat on merkitty karttaan keltaisilla ja punaisilla pisteillä.

Aseta hiiri pisteen päälle nähdäksesi sääaseman nimen.

Klikkaa sitten nähdäksesi säähavainnot ja -ennusteet.

Kartan vaihtaminen: klikkaa mustalla rastilla varustettuja vihreitä pisteitä, niin voit zoomata sisään; viivalla varustettua vihreää pistettä, niin voit zoomata ulos tai vihreitä nuolia, niin pääset viereisille kartoille.


METAR-TAF: